クェゼリン環礁 の空港の天気 - METARとTAF

バックホルツ陸軍飛行場 ( PKWA / KWA ) - マーシャル諸島 クェゼリン環礁
飛行場実況気象(Metar)
観測時間04/27 04:40 MHT (04/26 16:40 UTC)
風向・風速東北東 11m/s 瞬間風速12m/s
視程10km以上
天気現象
全天の8割程度の雲 雲底高度 1520m
気温27.2℃
湿度78%
気圧1009hPa
METARPKWA 261640Z AUTO 06021G24KT 10SM BKN050 27/23 A2979 RMK AO2 T02720230
過去の天気等 Google飛行場航空写真 Wunderground天気予報

過去48時間のMETAR

飛行場予報(TAF)
発表時間: 4/26 23:20 MHT (4/26 11:20 UTC)
予報対象時間: 27日0時 MHT ~ 28日0時 MHT
風向・風速東北東 9m/s
視程10km以上
全天の4割程度の雲 雲底高度 610m
全天を覆う雲 雲底高度 1370m
PKWA 261120Z 2612/2712 07017KT P6SM SCT020 OVC045